sensor_id;sensor_type;location;lat;lon;timestamp;P1;durP1;ratioP1;P2;durP2;ratioP2
75916;SDS011;64595;50.148;14.334;2024-03-25T00:01:49;7.88;;;5.32;;
75916;SDS011;64595;50.148;14.334;2024-03-25T00:04:15;6.25;;;4.25;;
75916;SDS011;64595;50.148;14.334;2024-03-25T00:06:40;5.25;;;3.50;;
75916;SDS011;64595;50.148;14.334;2024-03-25T00:09:06;7.38;;;4.60;;
75916;SDS011;64595;50.148;14.334;2024-03-25T00:11:33;15.23;;;7.45;;
75916;SDS011;64595;50.148;14.334;2024-03-25T00:13:58;6.07;;;4.38;;
75916;SDS011;64595;50.148;14.334;2024-03-25T00:16:24;4.72;;;2.70;;
75916;SDS011;64595;50.148;14.334;2024-03-25T00:18:49;4.53;;;2.95;;
75916;SDS011;64595;50.148;14.334;2024-03-25T00:21:15;6.93;;;5.25;;
75916;SDS011;64595;50.148;14.334;2024-03-25T00:23:40;10.48;;;6.03;;
75916;SDS011;64595;50.148;14.334;2024-03-25T00:26:05;7.57;;;4.38;;
75916;SDS011;64595;50.148;14.334;2024-03-25T00:28:32;5.05;;;3.78;;
75916;SDS011;64595;50.148;14.334;2024-03-25T00:30:58;7.32;;;4.63;;
75916;SDS011;64595;50.148;14.334;2024-03-25T00:33:23;7.35;;;4.22;;
75916;SDS011;64595;50.148;14.334;2024-03-25T00:35:49;10.82;;;6.35;;
75916;SDS011;64595;50.148;14.334;2024-03-25T00:38:14;6.53;;;4.43;;
75916;SDS011;64595;50.148;14.334;2024-03-25T00:40:39;5.18;;;3.33;;
75916;SDS011;64595;50.148;14.334;2024-03-25T00:43:05;8.07;;;5.75;;
75916;SDS011;64595;50.148;14.334;2024-03-25T00:45:32;8.35;;;4.28;;
75916;SDS011;64595;50.148;14.334;2024-03-25T00:47:57;11.27;;;4.93;;
75916;SDS011;64595;50.148;14.334;2024-03-25T00:50:23;10.60;;;6.57;;
75916;SDS011;64595;50.148;14.334;2024-03-25T00:52:48;9.30;;;7.00;;
75916;SDS011;64595;50.148;14.334;2024-03-25T00:55:14;10.25;;;5.50;;
75916;SDS011;64595;50.148;14.334;2024-03-25T00:57:39;17.50;;;8.63;;
75916;SDS011;64595;50.148;14.334;2024-03-25T01:00:05;7.45;;;4.88;;
75916;SDS011;64595;50.148;14.334;2024-03-25T01:02:33;10.70;;;6.07;;
75916;SDS011;64595;50.148;14.334;2024-03-25T01:04:58;11.73;;;6.55;;
75916;SDS011;64595;50.148;14.334;2024-03-25T01:07:23;11.13;;;6.22;;
75916;SDS011;64595;50.148;14.334;2024-03-25T01:09:49;12.98;;;5.57;;
75916;SDS011;64595;50.148;14.334;2024-03-25T01:12:14;7.13;;;4.93;;
75916;SDS011;64595;50.148;14.334;2024-03-25T01:14:40;9.13;;;4.70;;
75916;SDS011;64595;50.148;14.334;2024-03-25T01:17:05;11.27;;;7.50;;
75916;SDS011;64595;50.148;14.334;2024-03-25T01:19:32;9.88;;;6.47;;
75916;SDS011;64595;50.148;14.334;2024-03-25T01:21:57;5.28;;;3.47;;
75916;SDS011;64595;50.148;14.334;2024-03-25T01:24:23;16.58;;;9.02;;
75916;SDS011;64595;50.148;14.334;2024-03-25T01:26:48;21.23;;;10.68;;
75916;SDS011;64595;50.148;14.334;2024-03-25T01:29:14;11.68;;;5.93;;
75916;SDS011;64595;50.148;14.334;2024-03-25T01:31:39;12.18;;;6.57;;
75916;SDS011;64595;50.148;14.334;2024-03-25T01:34:05;9.57;;;5.47;;
75916;SDS011;64595;50.148;14.334;2024-03-25T01:36:31;7.82;;;4.65;;
75916;SDS011;64595;50.148;14.334;2024-03-25T01:38:57;6.78;;;4.75;;
75916;SDS011;64595;50.148;14.334;2024-03-25T01:41:23;6.38;;;4.10;;
75916;SDS011;64595;50.148;14.334;2024-03-25T01:43:48;6.20;;;4.43;;
75916;SDS011;64595;50.148;14.334;2024-03-25T01:46:14;7.88;;;5.07;;
75916;SDS011;64595;50.148;14.334;2024-03-25T01:48:39;5.80;;;4.00;;
75916;SDS011;64595;50.148;14.334;2024-03-25T01:51:05;5.85;;;3.75;;
75916;SDS011;64595;50.148;14.334;2024-03-25T01:53:32;7.40;;;5.10;;
75916;SDS011;64595;50.148;14.334;2024-03-25T01:55:57;7.63;;;4.70;;
75916;SDS011;64595;50.148;14.334;2024-03-25T01:58:23;5.72;;;3.55;;
75916;SDS011;64595;50.148;14.334;2024-03-25T02:00:49;9.18;;;6.55;;
75916;SDS011;64595;50.148;14.334;2024-03-25T02:03:14;8.05;;;4.55;;
75916;SDS011;64595;50.148;14.334;2024-03-25T02:05:40;7.95;;;4.80;;
75916;SDS011;64595;50.148;14.334;2024-03-25T02:08:06;10.43;;;4.60;;
75916;SDS011;64595;50.148;14.334;2024-03-25T02:10:33;7.85;;;5.82;;
75916;SDS011;64595;50.148;14.334;2024-03-25T02:12:58;10.80;;;5.40;;
75916;SDS011;64595;50.148;14.334;2024-03-25T02:15:24;11.07;;;5.85;;
75916;SDS011;64595;50.148;14.334;2024-03-25T02:17:49;6.70;;;3.63;;
75916;SDS011;64595;50.148;14.334;2024-03-25T02:20:15;11.60;;;7.82;;
75916;SDS011;64595;50.148;14.334;2024-03-25T02:22:41;12.52;;;7.00;;
75916;SDS011;64595;50.148;14.334;2024-03-25T02:25:07;7.63;;;4.97;;
75916;SDS011;64595;50.148;14.334;2024-03-25T02:27:35;9.93;;;5.47;;
75916;SDS011;64595;50.148;14.334;2024-03-25T02:30:01;6.03;;;3.70;;
75916;SDS011;64595;50.148;14.334;2024-03-25T02:32:28;6.05;;;4.05;;
75916;SDS011;64595;50.148;14.334;2024-03-25T02:34:53;6.88;;;4.60;;
75916;SDS011;64595;50.148;14.334;2024-03-25T02:37:19;4.80;;;3.53;;
75916;SDS011;64595;50.148;14.334;2024-03-25T02:39:45;7.65;;;4.60;;
75916;SDS011;64595;50.148;14.334;2024-03-25T02:42:11;6.25;;;3.97;;
75916;SDS011;64595;50.148;14.334;2024-03-25T02:44:38;5.72;;;3.58;;
75916;SDS011;64595;50.148;14.334;2024-03-25T02:47:03;6.75;;;4.03;;
75916;SDS011;64595;50.148;14.334;2024-03-25T02:49:29;11.18;;;6.55;;
75916;SDS011;64595;50.148;14.334;2024-03-25T02:51:54;7.47;;;5.82;;
75916;SDS011;64595;50.148;14.334;2024-03-25T02:54:20;8.77;;;4.97;;
75916;SDS011;64595;50.148;14.334;2024-03-25T02:56:45;10.32;;;7.07;;
75916;SDS011;64595;50.148;14.334;2024-03-25T02:59:11;8.65;;;3.88;;
75916;SDS011;64595;50.148;14.334;2024-03-25T03:01:37;5.78;;;3.28;;
75916;SDS011;64595;50.148;14.334;2024-03-25T03:04:03;5.40;;;3.40;;
75916;SDS011;64595;50.148;14.334;2024-03-25T03:06:29;7.32;;;4.75;;
75916;SDS011;64595;50.148;14.334;2024-03-25T03:08:54;6.13;;;4.15;;
75916;SDS011;64595;50.148;14.334;2024-03-25T03:11:19;5.72;;;3.17;;
75916;SDS011;64595;50.148;14.334;2024-03-25T03:13:45;6.65;;;4.15;;
75916;SDS011;64595;50.148;14.334;2024-03-25T03:16:10;5.85;;;3.50;;
75916;SDS011;64595;50.148;14.334;2024-03-25T03:18:37;4.82;;;2.90;;
75916;SDS011;64595;50.148;14.334;2024-03-25T03:21:03;7.32;;;3.28;;
75916;SDS011;64595;50.148;14.334;2024-03-25T03:23:28;5.93;;;3.28;;
75916;SDS011;64595;50.148;14.334;2024-03-25T03:25:54;4.93;;;2.72;;
75916;SDS011;64595;50.148;14.334;2024-03-25T03:28:19;6.05;;;3.88;;
75916;SDS011;64595;50.148;14.334;2024-03-25T03:30:44;5.75;;;2.70;;
75916;SDS011;64595;50.148;14.334;2024-03-25T03:33:10;4.38;;;2.70;;
75916;SDS011;64595;50.148;14.334;2024-03-25T03:35:37;4.90;;;2.75;;
75916;SDS011;64595;50.148;14.334;2024-03-25T03:38:02;7.20;;;3.38;;
75916;SDS011;64595;50.148;14.334;2024-03-25T03:40:28;7.10;;;3.45;;
75916;SDS011;64595;50.148;14.334;2024-03-25T03:42:54;6.80;;;4.75;;
75916;SDS011;64595;50.148;14.334;2024-03-25T03:45:19;5.95;;;3.83;;
75916;SDS011;64595;50.148;14.334;2024-03-25T03:47:46;3.95;;;2.50;;
75916;SDS011;64595;50.148;14.334;2024-03-25T03:50:11;4.68;;;2.92;;
75916;SDS011;64595;50.148;14.334;2024-03-25T03:52:38;6.63;;;2.83;;
75916;SDS011;64595;50.148;14.334;2024-03-25T03:55:04;4.65;;;3.50;;
75916;SDS011;64595;50.148;14.334;2024-03-25T03:57:30;3.92;;;2.00;;
75916;SDS011;64595;50.148;14.334;2024-03-25T03:59:56;4.78;;;3.55;;
75916;SDS011;64595;50.148;14.334;2024-03-25T04:02:22;3.88;;;2.20;;
75916;SDS011;64595;50.148;14.334;2024-03-25T04:04:47;2.97;;;1.95;;
75916;SDS011;64595;50.148;14.334;2024-03-25T04:07:12;3.40;;;2.10;;
75916;SDS011;64595;50.148;14.334;2024-03-25T04:09:39;4.93;;;2.58;;
75916;SDS011;64595;50.148;14.334;2024-03-25T04:12:05;4.60;;;2.30;;
75916;SDS011;64595;50.148;14.334;2024-03-25T04:14:30;3.65;;;2.30;;
75916;SDS011;64595;50.148;14.334;2024-03-25T04:16:56;3.70;;;2.22;;
75916;SDS011;64595;50.148;14.334;2024-03-25T04:19:23;4.15;;;2.25;;
75916;SDS011;64595;50.148;14.334;2024-03-25T04:21:49;3.33;;;2.35;;
75916;SDS011;64595;50.148;14.334;2024-03-25T04:24:14;3.17;;;2.38;;
75916;SDS011;64595;50.148;14.334;2024-03-25T04:26:41;3.15;;;2.17;;
75916;SDS011;64595;50.148;14.334;2024-03-25T04:29:06;3.67;;;1.98;;
75916;SDS011;64595;50.148;14.334;2024-03-25T04:31:32;6.60;;;2.38;;
75916;SDS011;64595;50.148;14.334;2024-03-25T04:33:57;3.60;;;2.40;;
75916;SDS011;64595;50.148;14.334;2024-03-25T04:36:23;4.85;;;2.60;;
75916;SDS011;64595;50.148;14.334;2024-03-25T04:38:48;5.43;;;2.70;;
75916;SDS011;64595;50.148;14.334;2024-03-25T04:41:15;3.95;;;2.53;;
75916;SDS011;64595;50.148;14.334;2024-03-25T04:43:42;4.00;;;2.60;;
75916;SDS011;64595;50.148;14.334;2024-03-25T04:46:07;3.83;;;2.40;;
75916;SDS011;64595;50.148;14.334;2024-03-25T04:48:39;3.20;;;1.90;;
75916;SDS011;64595;50.148;14.334;2024-03-25T04:51:05;4.55;;;1.90;;
75916;SDS011;64595;50.148;14.334;2024-03-25T04:53:31;4.15;;;2.20;;
75916;SDS011;64595;50.148;14.334;2024-03-25T04:55:56;2.45;;;1.83;;
75916;SDS011;64595;50.148;14.334;2024-03-25T04:58:22;5.55;;;2.38;;
75916;SDS011;64595;50.148;14.334;2024-03-25T05:00:49;3.70;;;2.15;;
75916;SDS011;64595;50.148;14.334;2024-03-25T05:03:14;2.97;;;2.03;;
75916;SDS011;64595;50.148;14.334;2024-03-25T05:05:40;3.17;;;2.15;;
75916;SDS011;64595;50.148;14.334;2024-03-25T05:08:05;3.10;;;2.60;;
75916;SDS011;64595;50.148;14.334;2024-03-25T05:10:31;3.45;;;2.13;;
75916;SDS011;64595;50.148;14.334;2024-03-25T05:12:56;3.05;;;1.95;;
75916;SDS011;64595;50.148;14.334;2024-03-25T05:15:22;3.78;;;2.42;;
75916;SDS011;64595;50.148;14.334;2024-03-25T05:17:48;4.00;;;2.58;;
75916;SDS011;64595;50.148;14.334;2024-03-25T05:20:14;2.97;;;1.92;;
75916;SDS011;64595;50.148;14.334;2024-03-25T05:22:40;6.15;;;2.05;;
75916;SDS011;64595;50.148;14.334;2024-03-25T05:25:05;3.30;;;2.00;;
75916;SDS011;64595;50.148;14.334;2024-03-25T05:27:31;2.33;;;1.70;;
75916;SDS011;64595;50.148;14.334;2024-03-25T05:29:56;3.00;;;2.00;;
75916;SDS011;64595;50.148;14.334;2024-03-25T05:32:22;3.35;;;2.10;;
75916;SDS011;64595;50.148;14.334;2024-03-25T05:34:49;3.33;;;2.25;;
75916;SDS011;64595;50.148;14.334;2024-03-25T05:37:14;3.83;;;2.10;;
75916;SDS011;64595;50.148;14.334;2024-03-25T05:39:40;4.22;;;2.15;;
75916;SDS011;64595;50.148;14.334;2024-03-25T05:42:05;3.20;;;2.03;;
75916;SDS011;64595;50.148;14.334;2024-03-25T05:44:31;2.95;;;2.20;;
75916;SDS011;64595;50.148;14.334;2024-03-25T05:46:56;3.05;;;2.05;;
75916;SDS011;64595;50.148;14.334;2024-03-25T05:49:22;5.63;;;3.08;;
75916;SDS011;64595;50.148;14.334;2024-03-25T05:51:49;12.02;;;6.75;;
75916;SDS011;64595;50.148;14.334;2024-03-25T05:54:15;17.80;;;8.85;;
75916;SDS011;64595;50.148;14.334;2024-03-25T05:56:41;7.55;;;2.67;;
75916;SDS011;64595;50.148;14.334;2024-03-25T05:59:06;4.32;;;2.63;;
75916;SDS011;64595;50.148;14.334;2024-03-25T06:01:32;5.70;;;2.90;;
75916;SDS011;64595;50.148;14.334;2024-03-25T06:03:59;4.40;;;3.20;;
75916;SDS011;64595;50.148;14.334;2024-03-25T06:06:30;15.80;;;5.60;;
75916;SDS011;64595;50.148;14.334;2024-03-25T06:08:57;4.95;;;2.35;;
75916;SDS011;64595;50.148;14.334;2024-03-25T06:11:22;3.60;;;2.22;;
75916;SDS011;64595;50.148;14.334;2024-03-25T06:13:48;6.70;;;2.45;;
75916;SDS011;64595;50.148;14.334;2024-03-25T06:16:14;4.38;;;2.40;;
75916;SDS011;64595;50.148;14.334;2024-03-25T06:18:40;5.82;;;2.10;;
75916;SDS011;64595;50.148;14.334;2024-03-25T06:21:05;5.30;;;2.10;;
75916;SDS011;64595;50.148;14.334;2024-03-25T06:23:31;8.13;;;2.60;;
75916;SDS011;64595;50.148;14.334;2024-03-25T06:25:58;4.35;;;2.70;;
75916;SDS011;64595;50.148;14.334;2024-03-25T06:28:23;4.15;;;2.33;;
75916;SDS011;64595;50.148;14.334;2024-03-25T06:30:49;4.38;;;2.97;;
75916;SDS011;64595;50.148;14.334;2024-03-25T06:33:16;4.97;;;2.55;;
75916;SDS011;64595;50.148;14.334;2024-03-25T06:35:42;5.80;;;2.38;;
75916;SDS011;64595;50.148;14.334;2024-03-25T06:38:08;4.40;;;2.85;;
75916;SDS011;64595;50.148;14.334;2024-03-25T06:40:33;6.22;;;2.65;;
75916;SDS011;64595;50.148;14.334;2024-03-25T06:43:00;4.68;;;2.35;;
75916;SDS011;64595;50.148;14.334;2024-03-25T06:45:25;9.40;;;2.63;;
75916;SDS011;64595;50.148;14.334;2024-03-25T06:47:51;7.10;;;2.28;;
75916;SDS011;64595;50.148;14.334;2024-03-25T06:50:16;3.78;;;2.28;;
75916;SDS011;64595;50.148;14.334;2024-03-25T06:52:42;4.80;;;2.28;;
75916;SDS011;64595;50.148;14.334;2024-03-25T06:55:07;3.58;;;2.53;;
75916;SDS011;64595;50.148;14.334;2024-03-25T06:57:33;4.05;;;2.30;;
75916;SDS011;64595;50.148;14.334;2024-03-25T07:00:00;4.78;;;2.42;;
75916;SDS011;64595;50.148;14.334;2024-03-25T07:02:25;5.95;;;3.08;;
75916;SDS011;64595;50.148;14.334;2024-03-25T07:04:51;3.33;;;2.40;;
75916;SDS011;64595;50.148;14.334;2024-03-25T07:07:16;3.20;;;2.30;;
75916;SDS011;64595;50.148;14.334;2024-03-25T07:09:42;3.28;;;2.25;;
75916;SDS011;64595;50.148;14.334;2024-03-25T07:12:07;5.00;;;2.67;;
75916;SDS011;64595;50.148;14.334;2024-03-25T07:14:33;4.28;;;2.30;;
75916;SDS011;64595;50.148;14.334;2024-03-25T07:17:00;7.47;;;2.58;;
75916;SDS011;64595;50.148;14.334;2024-03-25T07:19:25;2.83;;;2.05;;
75916;SDS011;64595;50.148;14.334;2024-03-25T07:21:51;4.93;;;2.78;;
75916;SDS011;64595;50.148;14.334;2024-03-25T07:24:16;6.03;;;2.58;;
75916;SDS011;64595;50.148;14.334;2024-03-25T07:26:41;5.68;;;2.17;;
75916;SDS011;64595;50.148;14.334;2024-03-25T07:29:07;4.15;;;2.20;;
75916;SDS011;64595;50.148;14.334;2024-03-25T07:31:32;3.65;;;2.03;;
75916;SDS011;64595;50.148;14.334;2024-03-25T07:33:59;2.97;;;2.10;;
75916;SDS011;64595;50.148;14.334;2024-03-25T07:36:25;5.15;;;2.75;;
75916;SDS011;64595;50.148;14.334;2024-03-25T07:38:50;7.80;;;3.10;;
75916;SDS011;64595;50.148;14.334;2024-03-25T07:41:16;4.45;;;2.97;;
75916;SDS011;64595;50.148;14.334;2024-03-25T07:43:41;4.65;;;3.05;;
75916;SDS011;64595;50.148;14.334;2024-03-25T07:46:07;3.80;;;2.17;;
75916;SDS011;64595;50.148;14.334;2024-03-25T07:48:32;3.28;;;1.70;;
75916;SDS011;64595;50.148;14.334;2024-03-25T07:50:59;3.58;;;2.40;;
75916;SDS011;64595;50.148;14.334;2024-03-25T07:53:24;3.47;;;2.20;;
75916;SDS011;64595;50.148;14.334;2024-03-25T07:55:50;5.55;;;2.95;;
75916;SDS011;64595;50.148;14.334;2024-03-25T07:58:15;5.95;;;3.75;;
75916;SDS011;64595;50.148;14.334;2024-03-25T08:00:41;2.53;;;1.73;;
75916;SDS011;64595;50.148;14.334;2024-03-25T08:03:06;3.08;;;2.17;;
75916;SDS011;64595;50.148;14.334;2024-03-25T08:05:32;9.00;;;2.42;;
75916;SDS011;64595;50.148;14.334;2024-03-25T08:07:58;3.97;;;2.35;;
75916;SDS011;64595;50.148;14.334;2024-03-25T08:10:24;5.47;;;2.05;;
75916;SDS011;64595;50.148;14.334;2024-03-25T08:12:49;5.78;;;2.72;;
75916;SDS011;64595;50.148;14.334;2024-03-25T08:15:15;6.38;;;3.00;;
75916;SDS011;64595;50.148;14.334;2024-03-25T08:17:40;6.85;;;4.30;;
75916;SDS011;64595;50.148;14.334;2024-03-25T08:20:06;6.20;;;3.20;;
75916;SDS011;64595;50.148;14.334;2024-03-25T08:22:32;12.27;;;5.32;;
75916;SDS011;64595;50.148;14.334;2024-03-25T08:24:59;4.00;;;2.88;;
75916;SDS011;64595;50.148;14.334;2024-03-25T08:27:24;2.90;;;2.60;;
75916;SDS011;64595;50.148;14.334;2024-03-25T08:29:50;4.65;;;2.03;;
75916;SDS011;64595;50.148;14.334;2024-03-25T08:32:15;5.65;;;2.47;;
75916;SDS011;64595;50.148;14.334;2024-03-25T08:34:41;3.42;;;1.80;;
75916;SDS011;64595;50.148;14.334;2024-03-25T08:37:06;4.47;;;2.33;;
75916;SDS011;64595;50.148;14.334;2024-03-25T08:39:32;3.53;;;2.00;;
75916;SDS011;64595;50.148;14.334;2024-03-25T08:41:58;3.30;;;1.90;;
75916;SDS011;64595;50.148;14.334;2024-03-25T08:44:24;3.80;;;2.13;;
75916;SDS011;64595;50.148;14.334;2024-03-25T08:46:49;2.20;;;1.60;;
75916;SDS011;64595;50.148;14.334;2024-03-25T08:49:15;5.22;;;1.90;;
75916;SDS011;64595;50.148;14.334;2024-03-25T08:51:40;3.70;;;1.80;;
75916;SDS011;64595;50.148;14.334;2024-03-25T08:54:06;3.65;;;1.77;;
75916;SDS011;64595;50.148;14.334;2024-03-25T08:56:31;2.60;;;1.95;;
75916;SDS011;64595;50.148;14.334;2024-03-25T08:58:58;3.10;;;2.00;;
75916;SDS011;64595;50.148;14.334;2024-03-25T09:01:24;4.53;;;1.85;;
75916;SDS011;64595;50.148;14.334;2024-03-25T09:03:49;2.17;;;1.45;;
75916;SDS011;64595;50.148;14.334;2024-03-25T09:06:15;5.15;;;2.33;;
75916;SDS011;64595;50.148;14.334;2024-03-25T09:08:40;3.55;;;2.17;;
75916;SDS011;64595;50.148;14.334;2024-03-25T09:11:08;4.10;;;2.17;;
75916;SDS011;64595;50.148;14.334;2024-03-25T09:13:33;6.13;;;2.50;;
75916;SDS011;64595;50.148;14.334;2024-03-25T09:16:00;5.75;;;2.88;;
75916;SDS011;64595;50.148;14.334;2024-03-25T09:18:25;4.85;;;3.25;;
75916;SDS011;64595;50.148;14.334;2024-03-25T09:20:51;3.17;;;2.08;;
75916;SDS011;64595;50.148;14.334;2024-03-25T09:23:16;3.47;;;2.17;;
75916;SDS011;64595;50.148;14.334;2024-03-25T09:25:50;3.45;;;2.10;;
75916;SDS011;64595;50.148;14.334;2024-03-25T09:28:16;4.00;;;2.25;;
75916;SDS011;64595;50.148;14.334;2024-03-25T09:30:42;3.30;;;1.80;;
75916;SDS011;64595;50.148;14.334;2024-03-25T09:33:08;4.05;;;1.95;;
75916;SDS011;64595;50.148;14.334;2024-03-25T09:35:34;2.45;;;1.42;;
75916;SDS011;64595;50.148;14.334;2024-03-25T09:37:59;3.08;;;1.60;;
75916;SDS011;64595;50.148;14.334;2024-03-25T09:40:25;3.53;;;1.70;;
75916;SDS011;64595;50.148;14.334;2024-03-25T09:42:52;4.45;;;1.75;;
75916;SDS011;64595;50.148;14.334;2024-03-25T09:45:20;2.25;;;1.65;;
75916;SDS011;64595;50.148;14.334;2024-03-25T09:47:49;2.30;;;1.67;;
75916;SDS011;64595;50.148;14.334;2024-03-25T09:50:17;3.83;;;1.98;;
75916;SDS011;64595;50.148;14.334;2024-03-25T09:52:43;4.70;;;2.20;;
75916;SDS011;64595;50.148;14.334;2024-03-25T09:55:08;3.95;;;1.98;;
75916;SDS011;64595;50.148;14.334;2024-03-25T09:57:34;3.75;;;1.85;;
75916;SDS011;64595;50.148;14.334;2024-03-25T10:00:00;3.22;;;1.88;;
75916;SDS011;64595;50.148;14.334;2024-03-25T10:02:26;4.07;;;1.90;;
75916;SDS011;64595;50.148;14.334;2024-03-25T10:04:53;2.40;;;1.67;;
75916;SDS011;64595;50.148;14.334;2024-03-25T10:07:22;2.60;;;1.73;;
75916;SDS011;64595;50.148;14.334;2024-03-25T10:09:48;4.35;;;2.15;;
75916;SDS011;64595;50.148;14.334;2024-03-25T10:12:14;4.93;;;2.17;;
75916;SDS011;64595;50.148;14.334;2024-03-25T10:14:39;3.22;;;2.10;;
75916;SDS011;64595;50.148;14.334;2024-03-25T10:17:05;3.05;;;2.33;;
75916;SDS011;64595;50.148;14.334;2024-03-25T10:19:30;2.90;;;1.83;;
75916;SDS011;64595;50.148;14.334;2024-03-25T10:22:01;3.00;;;1.73;;
75916;SDS011;64595;50.148;14.334;2024-03-25T10:24:28;3.17;;;2.10;;
75916;SDS011;64595;50.148;14.334;2024-03-25T10:27:02;3.30;;;2.05;;
75916;SDS011;64595;50.148;14.334;2024-03-25T10:29:27;4.85;;;2.70;;
75916;SDS011;64595;50.148;14.334;2024-03-25T10:31:58;4.25;;;3.50;;
75916;SDS011;64595;50.148;14.334;2024-03-25T10:34:24;4.30;;;2.08;;
75916;SDS011;64595;50.148;14.334;2024-03-25T10:36:49;2.95;;;2.00;;
75916;SDS011;64595;50.148;14.334;2024-03-25T10:39:15;3.80;;;2.20;;
75916;SDS011;64595;50.148;14.334;2024-03-25T10:41:42;3.72;;;2.33;;
75916;SDS011;64595;50.148;14.334;2024-03-25T10:44:08;4.18;;;2.08;;
75916;SDS011;64595;50.148;14.334;2024-03-25T10:46:34;4.53;;;3.65;;
75916;SDS011;64595;50.148;14.334;2024-03-25T10:49:01;5.68;;;4.32;;
75916;SDS011;64595;50.148;14.334;2024-03-25T10:51:29;4.32;;;3.38;;
75916;SDS011;64595;50.148;14.334;2024-03-25T10:53:56;6.18;;;4.68;;
75916;SDS011;64595;50.148;14.334;2024-03-25T10:56:23;8.13;;;4.80;;
75916;SDS011;64595;50.148;14.334;2024-03-25T10:58:50;7.97;;;3.63;;
75916;SDS011;64595;50.148;14.334;2024-03-25T11:01:16;10.35;;;4.78;;
75916;SDS011;64595;50.148;14.334;2024-03-25T11:03:42;7.10;;;2.80;;
75916;SDS011;64595;50.148;14.334;2024-03-25T11:06:08;7.43;;;3.65;;
75916;SDS011;64595;50.148;14.334;2024-03-25T11:08:33;3.90;;;2.40;;
75916;SDS011;64595;50.148;14.334;2024-03-25T11:10:59;4.15;;;2.88;;
75916;SDS011;64595;50.148;14.334;2024-03-25T11:13:26;6.43;;;4.28;;
75916;SDS011;64595;50.148;14.334;2024-03-25T11:15:53;6.53;;;2.95;;
75916;SDS011;64595;50.148;14.334;2024-03-25T11:18:22;4.65;;;2.28;;
75916;SDS011;64595;50.148;14.334;2024-03-25T11:20:48;4.95;;;3.20;;
75916;SDS011;64595;50.148;14.334;2024-03-25T11:23:13;5.30;;;3.00;;
75916;SDS011;64595;50.148;14.334;2024-03-25T11:25:39;4.45;;;2.70;;
75916;SDS011;64595;50.148;14.334;2024-03-25T11:28:05;5.32;;;2.60;;
75916;SDS011;64595;50.148;14.334;2024-03-25T11:30:31;4.00;;;2.65;;
75916;SDS011;64595;50.148;14.334;2024-03-25T11:33:01;5.85;;;3.22;;
75916;SDS011;64595;50.148;14.334;2024-03-25T11:35:26;5.63;;;2.90;;
75916;SDS011;64595;50.148;14.334;2024-03-25T11:37:52;4.20;;;2.63;;
75916;SDS011;64595;50.148;14.334;2024-03-25T11:40:18;4.82;;;2.47;;
75916;SDS011;64595;50.148;14.334;2024-03-25T11:42:44;4.50;;;2.80;;
75916;SDS011;64595;50.148;14.334;2024-03-25T11:45:13;14.07;;;5.38;;
75916;SDS011;64595;50.148;14.334;2024-03-25T11:47:39;11.40;;;4.50;;
75916;SDS011;64595;50.148;14.334;2024-03-25T11:50:08;5.45;;;3.42;;
75916;SDS011;64595;50.148;14.334;2024-03-25T11:52:34;3.78;;;2.78;;
75916;SDS011;64595;50.148;14.334;2024-03-25T11:55:00;4.18;;;2.60;;
75916;SDS011;64595;50.148;14.334;2024-03-25T11:57:25;3.63;;;2.40;;
75916;SDS011;64595;50.148;14.334;2024-03-25T11:59:51;8.88;;;2.80;;
75916;SDS011;64595;50.148;14.334;2024-03-25T12:02:16;3.83;;;2.50;;
75916;SDS011;64595;50.148;14.334;2024-03-25T12:04:42;4.18;;;3.13;;
75916;SDS011;64595;50.148;14.334;2024-03-25T12:07:11;3.55;;;2.38;;
75916;SDS011;64595;50.148;14.334;2024-03-25T12:09:37;4.40;;;2.65;;
75916;SDS011;64595;50.148;14.334;2024-03-25T12:12:02;3.40;;;2.47;;
75916;SDS011;64595;50.148;14.334;2024-03-25T12:14:28;4.50;;;2.22;;
75916;SDS011;64595;50.148;14.334;2024-03-25T12:16:54;5.25;;;2.75;;
75916;SDS011;64595;50.148;14.334;2024-03-25T12:19:19;5.60;;;2.83;;
75916;SDS011;64595;50.148;14.334;2024-03-25T12:21:45;4.65;;;2.42;;
75916;SDS011;64595;50.148;14.334;2024-03-25T12:24:12;27.98;;;5.65;;
75916;SDS011;64595;50.148;14.334;2024-03-25T12:26:37;5.00;;;3.00;;
75916;SDS011;64595;50.148;14.334;2024-03-25T12:29:03;6.03;;;3.15;;
75916;SDS011;64595;50.148;14.334;2024-03-25T12:31:28;7.00;;;2.65;;
75916;SDS011;64595;50.148;14.334;2024-03-25T12:33:54;4.88;;;3.20;;
75916;SDS011;64595;50.148;14.334;2024-03-25T12:36:27;4.05;;;2.60;;
75916;SDS011;64595;50.148;14.334;2024-03-25T12:38:55;4.90;;;2.50;;
75916;SDS011;64595;50.148;14.334;2024-03-25T12:41:23;5.30;;;3.20;;
75916;SDS011;64595;50.148;14.334;2024-03-25T12:43:49;4.78;;;2.83;;
75916;SDS011;64595;50.148;14.334;2024-03-25T12:46:15;10.38;;;3.08;;
75916;SDS011;64595;50.148;14.334;2024-03-25T12:48:41;4.13;;;2.80;;
75916;SDS011;64595;50.148;14.334;2024-03-25T12:51:11;6.45;;;2.33;;
75916;SDS011;64595;50.148;14.334;2024-03-25T12:53:37;2.72;;;2.03;;
75916;SDS011;64595;50.148;14.334;2024-03-25T12:56:03;4.10;;;2.65;;
75916;SDS011;64595;50.148;14.334;2024-03-25T12:58:30;4.03;;;2.30;;
75916;SDS011;64595;50.148;14.334;2024-03-25T13:00:55;4.20;;;2.40;;
75916;SDS011;64595;50.148;14.334;2024-03-25T13:03:21;6.93;;;2.65;;
75916;SDS011;64595;50.148;14.334;2024-03-25T13:05:46;2.90;;;2.13;;
75916;SDS011;64595;50.148;14.334;2024-03-25T13:08:12;10.32;;;2.88;;
75916;SDS011;64595;50.148;14.334;2024-03-25T13:10:37;4.25;;;2.30;;
75916;SDS011;64595;50.148;14.334;2024-03-25T13:13:03;3.97;;;2.40;;
75916;SDS011;64595;50.148;14.334;2024-03-25T13:15:30;5.32;;;2.65;;
75916;SDS011;64595;50.148;14.334;2024-03-25T13:17:55;3.55;;;2.60;;
75916;SDS011;64595;50.148;14.334;2024-03-25T13:20:21;3.42;;;2.92;;
75916;SDS011;64595;50.148;14.334;2024-03-25T13:22:48;6.07;;;2.72;;
75916;SDS011;64595;50.148;14.334;2024-03-25T13:25:13;3.65;;;2.25;;
75916;SDS011;64595;50.148;14.334;2024-03-25T13:27:39;3.78;;;2.70;;
75916;SDS011;64595;50.148;14.334;2024-03-25T13:30:05;4.55;;;2.60;;
75916;SDS011;64595;50.148;14.334;2024-03-25T13:32:33;3.13;;;2.20;;
75916;SDS011;64595;50.148;14.334;2024-03-25T13:34:58;3.53;;;2.25;;
75916;SDS011;64595;50.148;14.334;2024-03-25T13:37:23;4.05;;;2.45;;
75916;SDS011;64595;50.148;14.334;2024-03-25T13:39:49;4.30;;;2.65;;
75916;SDS011;64595;50.148;14.334;2024-03-25T13:42:15;3.92;;;2.60;;
75916;SDS011;64595;50.148;14.334;2024-03-25T13:44:40;5.13;;;2.70;;
75916;SDS011;64595;50.148;14.334;2024-03-25T13:47:06;4.90;;;2.58;;
75916;SDS011;64595;50.148;14.334;2024-03-25T13:49:34;3.53;;;2.30;;
75916;SDS011;64595;50.148;14.334;2024-03-25T13:52:00;2.72;;;2.00;;
75916;SDS011;64595;50.148;14.334;2024-03-25T13:54:26;3.35;;;2.40;;
75916;SDS011;64595;50.148;14.334;2024-03-25T13:56:52;4.07;;;3.03;;
75916;SDS011;64595;50.148;14.334;2024-03-25T13:59:18;3.55;;;2.65;;
75916;SDS011;64595;50.148;14.334;2024-03-25T14:01:44;3.88;;;2.00;;
75916;SDS011;64595;50.148;14.334;2024-03-25T14:04:09;3.88;;;2.45;;
75916;SDS011;64595;50.148;14.334;2024-03-25T14:06:36;2.40;;;1.70;;
75916;SDS011;64595;50.148;14.334;2024-03-25T14:09:01;2.65;;;1.70;;
75916;SDS011;64595;50.148;14.334;2024-03-25T14:11:27;3.58;;;2.30;;
75916;SDS011;64595;50.148;14.334;2024-03-25T14:13:53;6.53;;;2.53;;
75916;SDS011;64595;50.148;14.334;2024-03-25T14:16:19;4.15;;;2.40;;
75916;SDS011;64595;50.148;14.334;2024-03-25T14:18:45;4.40;;;3.47;;
75916;SDS011;64595;50.148;14.334;2024-03-25T14:21:11;4.65;;;2.50;;
75916;SDS011;64595;50.148;14.334;2024-03-25T14:23:38;3.67;;;2.28;;
75916;SDS011;64595;50.148;14.334;2024-03-25T14:26:03;4.20;;;2.80;;